Time;durP1;ratioP1;P1;durP2;ratioP2;P2;SDS_P1;SDS_P2;PMS_P1;PMS_P2;Temp;Humidity;BMP_temperature;BMP_pressure;BME280_temperature;BME280_humidity;BME280_pressure;Samples;Min_cycle;Max_cycle;Signal;HPM_P1;HPM_P2
2021/08/20 00:02:39;;;;;;;4.90;4.33;;;;;;;18.76;62.85;100186.92;1961954;89;28670;-64
2021/08/20 00:05:41;;;;;;;4.87;4.00;;;;;;;18.76;62.92;100193.70;1962048;89;31838;-63
2021/08/20 00:08:44;;;;;;;6.30;4.03;;;;;;;18.76;63.00;100189.63;1984102;89;34125;-62
2021/08/20 00:11:46;;;;;;;6.55;4.37;;;;;;;18.76;63.02;100189.63;1994795;89;30166;-62
2021/08/20 00:14:48;;;;;;;4.62;4.20;;;;;;;18.77;63.09;100193.19;1994821;88;27712;-63
2021/08/20 00:17:50;;;;;;;6.92;4.20;;;;;;;18.76;63.10;100190.98;1983128;89;28718;-63
2021/08/20 00:20:53;;;;;;;6.75;4.28;;;;;;;18.77;63.10;100193.19;1962025;89;31844;-63
2021/08/20 00:23:55;;;;;;;5.05;3.80;;;;;;;18.76;63.26;100190.98;1961888;89;33725;-63
2021/08/20 00:26:57;;;;;;;6.25;4.22;;;;;;;18.74;63.19;100187.55;1962019;89;29329;-63
2021/08/20 00:29:59;;;;;;;4.67;4.15;;;;;;;18.74;63.28;100190.26;1976944;89;27739;-63
2021/08/20 00:33:01;;;;;;;6.30;4.40;;;;;;;18.74;63.39;100183.47;1994908;89;29443;-63
2021/08/20 00:36:04;;;;;;;9.05;4.40;;;;;;;18.74;63.37;100179.40;1989652;88;31123;-62
2021/08/20 00:39:06;;;;;;;5.00;4.15;;;;;;;18.74;63.51;100186.19;1956200;89;33058;-63
2021/08/20 00:42:08;;;;;;;5.65;4.35;;;;;;;18.74;63.46;100186.66;1933196;91;29312;-63
2021/08/20 00:45:10;;;;;;;6.20;4.28;;;;;;;18.74;63.44;100183.95;1933365;90;27740;-63
2021/08/20 00:48:12;;;;;;;5.35;4.45;;;;;;;18.74;63.54;100178.52;1949610;90;28547;-63
2021/08/20 00:51:23;;;;;;;6.80;4.45;;;;;;;18.73;63.63;100180.39;1965238;90;31066;-63
2021/08/20 00:54:26;;;;;;;4.42;4.03;;;;;;;18.72;63.67;100181.38;1965033;90;33975;-62
2021/08/20 00:57:29;;;;;;;13.40;4.97;;;;;;;18.72;63.68;100180.50;1963926;90;29402;-63
2021/08/20 01:00:31;;;;;;;4.72;3.98;;;;;;;18.71;63.66;100176.06;1951664;89;27705;-63
2021/08/20 01:03:33;;;;;;;6.60;4.75;;;;;;;18.70;63.73;100181.16;1997260;89;28638;-63
2021/08/20 01:06:40;;;;;;;7.95;5.28;;;;;;;18.69;63.80;100181.64;1996671;89;31190;-62
2021/08/20 01:09:42;;;;;;;5.83;4.53;;;;;;;18.68;63.95;100186.70;1997430;89;34131;-62
2021/08/20 01:12:44;;;;;;;5.45;3.67;;;;;;;18.66;63.97;100188.20;1984373;87;29400;-62
2021/08/20 01:15:47;;;;;;;6.75;4.83;;;;;;;18.67;63.98;100180.91;1933433;91;28131;-62
2021/08/20 01:18:48;;;;;;;5.78;4.92;;;;;;;18.66;63.86;100183.25;1933034;92;28657;-62
2021/08/20 01:21:53;;;;;;;9.28;4.87;;;;;;;18.65;63.98;100185.60;1969096;89;31929;-61
2021/08/20 01:25:01;;;;;;;5.92;4.80;;;;;;;18.64;64.10;100187.47;1997051;89;33089;-62
2021/08/20 01:28:10;;;;;;;5.97;5.22;;;;;;;18.62;64.15;100188.09;1989129;89;29390;-63
2021/08/20 01:31:15;;;;;;;8.68;5.20;;;;;;;18.61;64.27;100193.66;1933327;91;27699;-62
2021/08/20 01:34:17;;;;;;;7.85;4.62;;;;;;;18.59;64.25;100190.22;1933138;90;28648;-65
2021/08/20 01:37:19;;;;;;;7.40;4.92;;;;;;;18.59;64.17;100191.57;1944274;89;32018;-63
2021/08/20 01:40:21;;;;;;;6.53;4.25;;;;;;;18.57;64.27;100186.77;1957933;89;34004;-64
2021/08/20 01:43:23;;;;;;;7.22;4.95;;;;;;;18.57;64.35;100192.20;1956114;89;29514;-65
2021/08/20 01:46:28;;;;;;;7.10;4.62;;;;;;;18.55;64.35;100189.59;1955380;91;27578;-63
2021/08/20 01:49:30;;;;;;;6.87;4.40;;;;;;;18.55;64.39;100196.37;1984140;88;28775;-64
2021/08/20 01:52:31;;;;;;;6.20;4.95;;;;;;;18.53;64.48;100194.31;2018793;88;30208;-64
2021/08/20 01:55:33;;;;;;;8.50;5.17;;;;;;;18.52;64.58;100194.80;1998402;88;32935;-64
2021/08/20 01:58:35;;;;;;;7.40;5.17;;;;;;;18.51;64.58;100190.36;1956188;90;29340;-65
2021/08/20 02:01:37;;;;;;;7.80;5.62;;;;;;;18.50;64.62;100195.93;1956423;89;27666;-65
2021/08/20 02:04:39;;;;;;;5.20;4.70;;;;;;;18.48;64.73;100194.69;1956212;91;28897;-64
2021/08/20 02:07:41;;;;;;;6.72;4.70;;;;;;;18.48;64.67;100193.84;1956375;90;31666;-64
2021/08/20 02:10:44;;;;;;;7.03;4.85;;;;;;;18.47;64.78;100192.11;1956296;89;32975;-62
2021/08/20 02:13:46;;;;;;;5.75;4.40;;;;;;;18.45;64.83;100191.38;1974937;88;29577;-63
2021/08/20 02:16:47;;;;;;;8.35;4.70;;;;;;;18.44;64.93;100189.17;1988949;88;27718;-64
2021/08/20 02:19:49;;;;;;;8.53;5.10;;;;;;;18.42;65.02;100188.44;1988931;88;28031;-64
2021/08/20 02:22:51;;;;;;;6.92;4.55;;;;;;;18.40;64.99;100184.12;1987076;88;31103;-63
2021/08/20 02:25:52;;;;;;;7.08;4.90;;;;;;;18.39;65.03;100184.62;1980584;89;32929;-63
2021/08/20 02:28:54;;;;;;;9.25;4.97;;;;;;;18.37;65.15;100186.09;1982822;88;30124;-63
2021/08/20 02:31:56;;;;;;;6.03;4.92;;;;;;;18.37;65.12;100183.38;1984847;89;27721;-63
2021/08/20 02:34:58;;;;;;;7.80;5.25;;;;;;;18.36;65.11;100184.88;1955639;91;28771;-63
2021/08/20 02:38:00;;;;;;;5.30;4.55;;;;;;;18.35;65.27;100176.37;1959491;90;31857;-63
2021/08/20 02:41:01;;;;;;;7.30;4.97;;;;;;;18.34;65.25;100178.72;1961712;89;34222;-63
2021/08/20 02:44:04;;;;;;;6.85;4.72;;;;;;;18.33;65.43;100181.94;1988360;89;29338;-63
2021/08/20 02:47:06;;;;;;;5.12;4.60;;;;;;;18.32;65.43;100180.70;1995131;88;27680;-63
2021/08/20 02:50:09;;;;;;;7.12;4.80;;;;;;;18.31;65.45;100180.33;1995059;89;29084;-63
2021/08/20 02:53:11;;;;;;;5.72;4.83;;;;;;;18.30;65.55;100179.97;1982309;89;31279;-64
2021/08/20 02:56:13;;;;;;;8.83;4.58;;;;;;;18.20;65.72;100164.99;1962050;89;32972;-63
2021/08/20 02:59:15;;;;;;;6.33;5.15;;;;;;;18.26;65.69;100181.23;1961924;89;30534;-64
2021/08/20 03:02:16;;;;;;;6.40;4.50;;;;;;;18.24;65.75;100184.05;1996725;88;27800;-62
2021/08/20 03:05:18;;;;;;;4.83;4.42;;;;;;;18.21;65.83;100185.19;1961415;90;29481;-62
2021/08/20 03:08:20;;;;;;;5.10;4.58;;;;;;;18.21;65.92;100185.19;1961738;90;32137;-63
2021/08/20 03:11:22;;;;;;;6.50;5.33;;;;;;;18.20;65.96;100178.04;1961280;89;33934;-62
2021/08/20 03:14:24;;;;;;;5.60;4.12;;;;;;;18.20;65.91;100175.84;1963826;89;30139;-64
2021/08/20 03:17:26;;;;;;;6.10;4.30;;;;;;;18.17;66.04;100179.64;1961968;89;27719;-63
2021/08/20 03:20:28;;;;;;;6.05;4.67;;;;;;;18.16;66.06;100181.14;1968392;88;28721;-64
2021/08/20 03:23:30;;;;;;;6.15;4.97;;;;;;;18.15;66.22;100185.69;2022301;88;31057;-64
2021/08/20 03:26:32;;;;;;;7.92;5.12;;;;;;;18.01;66.30;100162.94;1997414;88;33062;-64
2021/08/20 03:29:34;;;;;;;11.70;5.05;;;;;;;18.13;66.40;100189.53;2007665;88;30131;-63
2021/08/20 03:32:36;;;;;;;14.15;6.22;;;;;;;18.12;66.45;100187.30;2022504;88;27567;-63
2021/08/20 03:35:39;;;;;;;11.30;6.08;;;;;;;18.11;66.57;100188.79;1972513;88;29530;-63
2021/08/20 03:38:41;;;;;;;12.05;6.12;;;;;;;18.10;66.64;100184.36;1989802;87;32216;-64
2021/08/20 03:41:43;;;;;;;10.75;6.37;;;;;;;18.09;66.68;100193.00;1993762;88;32963;-64
2021/08/20 03:44:44;;;;;;;8.10;5.70;;;;;;;18.07;66.62;100191.75;2000311;88;29718;-63
2021/08/20 03:47:47;;;;;;;7.67;5.12;;;;;;;18.07;66.62;100191.75;2022519;88;27720;-64
2021/08/20 03:50:49;;;;;;;7.35;5.35;;;;;;;18.08;66.82;100189.92;2021261;88;29566;-63
2021/08/20 03:53:51;;;;;;;10.03;6.67;;;;;;;18.08;66.81;100198.05;2015671;88;32418;-64
2021/08/20 03:56:53;;;;;;;8.43;5.10;;;;;;;18.07;66.94;100198.53;1974823;89;32974;-64
2021/08/20 03:59:56;;;;;;;6.28;5.60;;;;;;;18.07;67.04;100204.46;1970585;88;30143;-65
2021/08/20 04:02:58;;;;;;;7.92;4.83;;;;;;;18.06;67.08;100204.94;1953465;90;27756;-64
2021/08/20 04:06:00;;;;;;;7.30;5.80;;;;;;;18.06;67.18;100206.30;1962054;90;29489;-65
2021/08/20 04:09:01;;;;;;;6.83;5.33;;;;;;;18.06;67.18;100204.94;1989382;89;31095;-64
2021/08/20 04:12:06;;;;;;;8.60;6.15;;;;;;;18.09;67.20;100211.09;1994979;89;32949;-64
2021/08/20 04:15:09;;;;;;;7.25;6.03;;;;;;;18.09;67.22;100215.16;1994934;88;29468;-63
2021/08/20 04:18:11;;;;;;;9.25;6.15;;;;;;;18.10;67.27;100214.17;1976312;89;28449;-64
2021/08/20 04:21:13;;;;;;;7.33;6.12;;;;;;;18.12;67.43;100215.76;1961695;89;28755;-62
2021/08/20 04:24:15;;;;;;;6.30;5.70;;;;;;;18.15;67.42;100222.29;1963788;88;31645;-65
2021/08/20 04:27:18;;;;;;;9.40;6.00;;;;;;;18.16;67.54;100218.59;2008675;88;33074;-65
2021/08/20 04:30:22;;;;;;;10.68;6.20;;;;;;;18.05;67.62;100189.66;1961795;89;30217;-65
2021/08/20 04:33:24;;;;;;;8.87;6.17;;;;;;;18.21;67.58;100222.27;1987080;88;27722;-65
2021/08/20 04:36:25;;;;;;;12.03;6.17;;;;;;;18.23;67.68;100221.65;2021934;88;29460;-64
2021/08/20 04:39:29;;;;;;;9.40;6.10;;;;;;;18.26;67.84;100214.63;1964842;88;31010;-64
2021/08/20 04:42:31;;;;;;;9.40;7.30;;;;;;;18.26;67.51;100215.12;1979156;88;33773;-65
2021/08/20 04:45:33;;;;;;;12.00;7.92;;;;;;;18.30;67.58;100219.28;1994725;87;29330;-65
2021/08/20 04:48:35;;;;;;;14.75;9.18;;;;;;;18.34;67.61;100220.76;1977917;88;28425;-65
2021/08/20 04:51:36;;;;;;;16.30;8.93;;;;;;;18.37;67.63;100216.44;1961314;89;28650;-65
2021/08/20 04:54:39;;;;;;;13.43;8.00;;;;;;;18.40;67.60;100222.09;1961887;90;31050;-66
2021/08/20 04:57:46;;;;;;;7.75;5.75;;;;;;;18.43;67.59;100215.94;1968269;89;33236;-65
2021/08/20 05:00:48;;;;;;;8.38;6.55;;;;;;;18.46;67.47;100218.36;1994487;88;30615;-65
2021/08/20 05:03:50;;;;;;;14.93;7.20;;;;;;;18.48;67.44;100215.54;1963632;90;27719;-64
2021/08/20 05:06:51;;;;;;;8.20;6.17;;;;;;;18.55;67.47;100215.88;1963519;89;28643;-65
2021/08/20 05:09:53;;;;;;;15.93;6.80;;;;;;;18.60;67.44;100217.20;1963348;89;31034;-64
2021/08/20 05:12:55;;;;;;;10.15;6.55;;;;;;;18.64;67.43;100221.39;1987882;88;32985;-65
2021/08/20 05:15:57;;;;;;;8.23;5.37;;;;;;;18.70;67.33;100224.58;2022333;88;30121;-65
2021/08/20 05:18:59;;;;;;;9.85;5.80;;;;;;;18.74;67.29;100226.02;2021430;88;27782;-65
2021/08/20 05:22:00;;;;;;;7.12;5.62;;;;;;;18.78;67.30;100222.90;1971092;88;28769;-65
2021/08/20 05:25:03;;;;;;;9.23;5.47;;;;;;;18.83;67.24;100222.53;1961996;89;31215;-64
2021/08/20 05:28:09;;;;;;;13.85;6.10;;;;;;;18.87;67.12;100223.97;1961810;90;32975;-64
2021/08/20 05:31:10;;;;;;;7.80;5.08;;;;;;;18.91;66.98;100226.78;1962133;89;29497;-63
2021/08/20 05:34:12;;;;;;;8.85;5.12;;;;;;;18.95;66.86;100227.41;1962165;89;27748;-63
2021/08/20 05:37:13;;;;;;;6.33;5.55;;;;;;;19.01;66.87;100228.25;1961885;90;29619;-65
2021/08/20 05:40:16;;;;;;;9.93;5.00;;;;;;;19.07;66.78;100231.80;1962284;89;30927;-64
2021/08/20 05:43:18;;;;;;;7.53;5.72;;;;;;;19.11;66.65;100231.02;1994871;89;32987;-66
2021/08/20 05:46:20;;;;;;;9.05;5.65;;;;;;;19.17;66.54;100232.34;1988513;89;30446;-65
2021/08/20 05:49:21;;;;;;;11.30;7.08;;;;;;;19.23;66.52;100229.95;1960893;89;27759;-64
2021/08/20 05:52:23;;;;;;;8.53;6.00;;;;;;;19.31;66.47;100236.06;1961986;89;29473;-62
2021/08/20 05:55:25;;;;;;;9.18;5.90;;;;;;;19.39;66.44;100225.88;1975883;89;31080;-64
2021/08/20 05:58:27;;;;;;;8.93;5.78;;;;;;;19.48;66.33;100225.56;1994933;89;32995;-65
2021/08/20 06:01:29;;;;;;;11.18;6.03;;;;;;;19.57;66.24;100231.05;2006952;88;30370;-64
2021/08/20 06:04:32;;;;;;;9.95;5.95;;;;;;;19.70;66.13;100231.30;2021864;88;27718;-65
2021/08/20 06:07:34;;;;;;;11.73;5.85;;;;;;;19.83;66.06;100229.70;1994594;89;29552;-63
2021/08/20 06:10:35;;;;;;;7.75;5.80;;;;;;;19.96;65.81;100234.42;2017156;88;31640;-65
2021/08/20 06:13:37;;;;;;;12.53;8.10;;;;;;;20.12;65.61;100234.39;2008887;87;33699;-64
2021/08/20 06:16:39;;;;;;;12.98;6.15;;;;;;;20.24;65.58;100236.02;1971746;89;30341;-63
2021/08/20 06:19:41;;;;;;;14.28;7.00;;;;;;;20.37;65.22;100238.44;1961699;89;27616;-62
2021/08/20 06:22:43;;;;;;;15.95;5.42;;;;;;;20.49;65.06;100245.49;2008026;88;29905;-64
2021/08/20 06:25:44;;;;;;;7.05;5.08;;;;;;;20.60;64.54;100244.47;1979349;87;31452;-65
2021/08/20 06:28:46;;;;;;;9.28;5.42;;;;;;;20.69;64.45;100246.83;1994671;89;33204;-64
2021/08/20 06:31:49;;;;;;;14.10;5.83;;;;;;;20.80;64.41;100243.14;1994734;89;29377;-65
2021/08/20 06:34:51;;;;;;;10.48;5.10;;;;;;;20.92;64.21;100242.49;1970757;89;27724;-64
2021/08/20 06:37:53;;;;;;;7.25;4.53;;;;;;;21.05;63.98;100248.48;1962000;89;28872;-65
2021/08/20 06:40:55;;;;;;;13.45;5.25;;;;;;;21.18;63.76;100249.55;1968384;89;31175;-63
2021/08/20 06:43:57;;;;;;;8.45;5.50;;;;;;;21.28;63.52;100246.80;1962250;89;33142;-64
2021/08/20 06:46:59;;;;;;;10.68;7.05;;;;;;;21.42;63.39;100253.66;1994963;89;29354;-64
2021/08/20 06:50:01;;;;;;;9.90;5.03;;;;;;;21.57;63.29;100252.66;1995048;88;27748;-64
2021/08/20 06:53:02;;;;;;;9.90;5.03;;;;;;;21.75;63.04;100251.42;1995074;88;29482;-63
2021/08/20 06:56:06;;;;;;;7.60;4.80;;;;;;;21.93;62.92;100247.37;1994744;88;32065;-64
2021/08/20 06:59:08;;;;;;;9.08;4.87;;;;;;;22.13;62.67;100254.93;1963806;90;32990;-65
2021/08/20 07:02:10;;;;;;;9.55;4.72;;;;;;;22.34;62.37;100243.41;1963657;89;29514;-64
2021/08/20 07:05:13;;;;;;;10.80;4.20;;;;;;;22.57;61.79;100244.68;1963681;89;27703;-64
2021/08/20 07:08:15;;;;;;;8.20;4.37;;;;;;;22.83;61.50;100246.63;1963494;89;28558;-63
2021/08/20 07:11:20;;;;;;;7.85;4.05;;;;;;;23.03;60.97;100245.06;1962182;89;31413;-64
2021/08/20 07:14:22;;;;;;;;;;;;;;;23.33;60.79;100251.13;1964310;89;32961;-63
2021/08/20 07:17:24;;;;;;;8.23;3.83;;;;;;;23.66;60.06;100254.06;1967184;88;30315;-63
2021/08/20 07:20:26;;;;;;;7.92;3.80;;;;;;;23.98;59.27;100253.89;1986488;87;27692;-62
2021/08/20 07:23:35;;;;;;;10.55;4.53;;;;;;;24.36;58.87;100250.75;1957390;88;27771;-63
2021/08/20 07:26:38;;;;;;;8.88;3.67;;;;;;;25.17;58.42;100248.23;1994981;88;32045;-63
2021/08/20 07:29:41;;;;;;;6.50;3.30;;;;;;;26.04;56.52;100248.01;1976881;88;33020;-63
2021/08/20 07:32:48;;;;;;;6.65;3.90;;;;;;;26.70;55.64;100246.25;1995653;89;30174;-63
2021/08/20 07:35:54;;;;;;;3.33;3.02;;;;;;;27.20;53.98;100249.48;1995228;89;27687;-63
2021/08/20 07:38:56;;;;;;;4.05;3.65;;;;;;;27.93;53.56;100247.48;1973044;88;28651;-63
2021/08/20 07:41:58;;;;;;;6.00;3.77;;;;;;;28.74;51.57;100244.31;1968297;89;31984;-63
2021/08/20 07:45:01;;;;;;;6.05;3.37;;;;;;;29.16;50.59;100251.36;1992230;88;33368;-62
2021/08/20 07:48:04;;;;;;;4.25;3.15;;;;;;;29.54;49.61;100242.72;2022345;88;30173;-62
2021/08/20 07:51:08;;;;;;;7.47;3.70;;;;;;;30.21;48.65;100232.56;2022123;88;28216;-63
2021/08/20 07:54:10;;;;;;;4.97;2.83;;;;;;;30.72;47.76;100238.11;2010984;88;28704;-64
2021/08/20 07:57:11;;;;;;;3.77;2.92;;;;;;;30.86;46.84;100238.98;1985716;89;31046;-64
2021/08/20 08:00:14;;;;;;;3.30;3.00;;;;;;;30.95;46.22;100241.84;1969841;88;33582;-63
2021/08/20 08:03:16;;;;;;;4.85;3.45;;;;;;;30.94;44.86;100246.22;1962044;89;29392;-63
2021/08/20 08:06:18;;;;;;;5.97;3.10;;;;;;;31.36;44.61;100241.32;2004927;88;27679;-64
2021/08/20 08:09:20;;;;;;;3.45;3.02;;;;;;;31.37;43.89;100244.41;1994766;88;28658;-64
2021/08/20 08:12:22;;;;;;;4.87;2.87;;;;;;;31.27;43.26;100249.03;1977329;89;31801;-64
2021/08/20 08:15:25;;;;;;;7.53;4.03;;;;;;;31.10;42.95;100244.41;1994964;88;32962;-64
2021/08/20 08:18:27;;;;;;;7.03;3.15;;;;;;;30.97;42.90;100248.58;1994958;88;30014;-63
2021/08/20 08:21:29;;;;;;;9.38;3.15;;;;;;;30.82;42.58;100248.25;1986598;87;27721;-62
2021/08/20 08:24:31;;;;;;;3.12;2.90;;;;;;;30.61;42.24;100246.53;1961692;89;28723;-63
2021/08/20 08:27:49;;;;;;;7.35;3.27;;;;;;;30.27;41.68;100243.63;1960902;90;33154;-62
2021/08/20 08:30:51;;;;;;;6.20;2.85;;;;;;;29.95;42.22;100243.81;1992199;87;32978;-65
2021/08/20 08:33:53;;;;;;;6.97;3.17;;;;;;;29.77;42.11;100245.73;1979851;89;29435;-63
2021/08/20 08:36:55;;;;;;;4.78;3.20;;;;;;;29.60;42.20;100243.84;1961768;89;27541;-65
2021/08/20 08:39:57;;;;;;;4.40;2.72;;;;;;;29.46;42.45;100240.14;1961650;89;30045;-63
2021/08/20 08:42:59;;;;;;;3.27;2.90;;;;;;;29.46;42.40;100242.36;2018349;88;32300;-63
2021/08/20 08:46:04;;;;;;;4.17;3.10;;;;;;;29.47;42.57;100247.36;2022133;88;32891;-63
2021/08/20 08:49:06;;;;;;;5.87;3.10;;;;;;;29.40;42.44;100242.64;2021609;88;30476;-63
2021/08/20 08:52:28;;;;;;;4.22;3.37;;;;;;;29.40;42.48;100245.40;2022416;88;27711;-63
2021/08/20 08:55:41;;;;;;;4.85;3.05;;;;;;;29.29;42.27;100246.48;2009399;88;28692;-63
2021/08/20 08:58:50;;;;;;;30.77;5.62;;;;;;;29.28;42.46;100241.47;1994381;88;31105;-64
2021/08/20 09:01:52;;;;;;;6.90;3.30;;;;;;;29.31;42.43;100240.20;1995015;88;33057;-64
2021/08/20 09:05:01;;;;;;;5.40;3.90;;;;;;;29.38;42.44;100245.28;1994990;88;29351;-64
2021/08/20 09:08:08;;;;;;;18.37;5.55;;;;;;;29.43;42.01;100246.92;1995121;88;27665;-63
2021/08/20 09:11:13;;;;;;;13.75;4.90;;;;;;;29.45;42.11;100242.06;1994712;88;31147;-64
2021/08/20 09:14:17;;;;;;;8.15;4.22;;;;;;;29.58;42.07;100245.95;1990196;88;32505;-63
2021/08/20 09:17:35;;;;;;;23.70;4.75;;;;;;;29.70;41.61;100247.08;1962062;90;32971;-63
2021/08/20 09:20:37;;;;;;;7.85;3.40;;;;;;;29.67;41.71;100252.48;1961665;89;29373;-65
2021/08/20 09:23:39;;;;;;;3.12;2.83;;;;;;;29.67;41.46;100253.00;1962032;90;27736;-64
2021/08/20 09:26:41;;;;;;;6.53;3.12;;;;;;;29.63;41.47;100256.70;1961947;90;28714;-63
2021/08/20 09:30:07;;;;;;;4.03;3.00;;;;;;;29.59;41.25;100250.42;1992981;87;31044;-63
2021/08/20 09:33:14;;;;;;;4.05;3.00;;;;;;;29.36;40.89;100253.78;2022262;88;33120;-63
2021/08/20 09:36:19;;;;;;;3.00;2.80;;;;;;;29.33;41.05;100248.62;1989617;88;30290;-63
2021/08/20 09:39:27;;;;;;;3.42;2.70;;;;;;;29.37;40.96;100249.94;1962142;89;27717;-65
2021/08/20 09:42:29;;;;;;;5.53;2.45;;;;;;;29.36;40.77;100243.25;1962140;90;28704;-63
2021/08/20 09:45:31;;;;;;;5.17;3.40;;;;;;;29.37;40.74;100244.96;1962069;89;31859;-64
2021/08/20 09:48:55;;;;;;;3.40;3.10;;;;;;;29.45;40.86;100237.92;1962061;89;32979;-63
2021/08/20 09:51:58;;;;;;;4.50;3.25;;;;;;;29.53;40.62;100234.98;1962218;89;34819;-64
2021/08/20 09:55:00;;;;;;;4.75;3.47;;;;;;;29.67;40.73;100241.45;1962188;89;27692;-65
2021/08/20 09:58:05;;;;;;;4.85;2.95;;;;;;;29.74;40.39;100240.09;1962091;90;29031;-65
2021/08/20 10:01:06;;;;;;;4.85;2.92;;;;;;;29.73;40.41;100236.14;1980575;89;31112;-65
2021/08/20 10:04:11;;;;;;;4.40;2.60;;;;;;;29.69;40.32;100237.95;1994924;88;33055;-64
2021/08/20 10:07:16;;;;;;;3.87;3.27;;;;;;;29.64;40.63;100240.47;1994893;89;29520;-65
2021/08/20 10:10:17;;;;;;;5.53;3.77;;;;;;;29.66;40.36;100239.73;1978646;89;27799;-65
2021/08/20 10:13:20;;;;;;;3.85;3.05;;;;;;;29.61;40.39;100240.03;1962102;89;29555;-64
2021/08/20 10:16:22;;;;;;;7.20;3.17;;;;;;;29.60;40.27;100230.87;1962292;90;31163;-64
2021/08/20 10:19:25;;;;;;;5.03;3.20;;;;;;;29.56;40.35;100235.96;1961627;89;33827;-66
2021/08/20 10:22:27;;;;;;;4.22;3.22;;;;;;;29.60;40.57;100234.18;2004574;88;29331;-66
2021/08/20 10:25:30;;;;;;;4.35;3.20;;;;;;;29.57;40.28;100225.76;2002115;88;27799;-65
2021/08/20 10:28:33;;;;;;;4.47;3.50;;;;;;;29.62;40.32;100230.69;1969172;88;29397;-65
2021/08/20 10:31:35;;;;;;;4.62;2.98;;;;;;;29.58;40.29;100231.61;2022236;88;31058;-65
2021/08/20 10:34:39;;;;;;;6.28;3.45;;;;;;;29.62;40.25;100232.91;2022285;88;33199;-65
2021/08/20 10:37:42;;;;;;;3.92;3.37;;;;;;;29.63;40.08;100231.86;2004901;88;30191;-64
2021/08/20 10:40:49;;;;;;;5.15;3.47;;;;;;;29.54;39.82;100229.79;2020538;87;27719;-65
2021/08/20 10:44:13;;;;;;;4.87;3.05;;;;;;;29.53;39.80;100228.08;2016767;86;28885;-64
2021/08/20 10:47:26;;;;;;;3.72;3.15;;;;;;;29.58;39.77;100230.23;1989406;88;31048;-63
2021/08/20 10:50:34;;;;;;;5.00;3.10;;;;;;;29.52;39.77;100229.13;1958849;88;33425;-64
2021/08/20 10:53:41;;;;;;;4.95;3.17;;;;;;;29.51;40.04;100221.07;1955951;90;30321;-65
2021/08/20 10:56:44;;;;;;;3.80;3.40;;;;;;;29.51;39.90;100221.07;1957864;88;37842;-65
2021/08/20 10:59:54;;;;;;;7.83;3.33;;;;;;;29.54;40.02;100223.39;2000418;88;28719;-65
2021/08/20 11:03:01;;;;;;;5.00;3.00;;;;;;;29.64;39.55;100226.66;1988394;89;31273;-65
2021/08/20 11:06:03;;;;;;;9.28;3.67;;;;;;;29.59;39.78;100229.71;2007849;88;32977;-65
2021/08/20 11:09:29;;;;;;;4.17;3.30;;;;;;;29.69;40.13;100226.91;2005491;88;29156;-65
2021/08/20 11:12:53;;;;;;;5.10;3.50;;;;;;;29.76;39.85;100228.83;1980423;88;27678;-65
2021/08/20 11:15:55;;;;;;;3.85;3.40;;;;;;;29.77;39.85;100225.89;1980811;89;29428;-65
2021/08/20 11:18:57;;;;;;;4.80;3.65;;;;;;;29.74;39.57;100229.56;1980556;89;31869;-66
2021/08/20 11:22:23;;;;;;;6.42;3.15;;;;;;;29.60;39.49;100221.76;1980541;89;33231;-64
2021/08/20 11:25:42;;;;;;;4.42;3.02;;;;;;;29.33;39.46;100221.54;1985589;89;29308;-65
2021/08/20 11:28:46;;;;;;;5.03;3.25;;;;;;;29.09;39.45;100226.48;1989390;89;27645;-66
2021/08/20 11:31:48;;;;;;;4.25;3.60;;;;;;;28.81;39.93;100220.39;1980426;89;29505;-65
2021/08/20 11:34:52;;;;;;;7.22;3.30;;;;;;;28.46;39.91;100225.78;1980190;89;31102;-65
2021/08/20 11:37:55;;;;;;;11.60;4.30;;;;;;;28.13;40.50;100227.10;1979947;89;32977;-63
2021/08/20 11:41:05;;;;;;;4.00;3.42;;;;;;;27.81;40.96;100222.84;1991697;89;29976;-64
2021/08/20 11:44:09;;;;;;;9.10;3.77;;;;;;;27.38;41.30;100227.10;1995020;88;27763;-63
2021/08/20 11:47:16;;;;;;;;;;;;;;;27.06;41.94;100221.40;1985264;88;28664;-63
2021/08/20 11:50:18;;;;;;;6.67;3.70;;;;;;;26.79;42.36;100219.56;1962065;90;31046;-64
2021/08/20 11:53:22;;;;;;;10.18;3.70;;;;;;;26.49;42.82;100227.16;1952955;90;33173;-63
2021/08/20 11:56:25;;;;;;;5.17;3.55;;;;;;;26.17;43.21;100224.97;1964956;89;29398;-63
2021/08/20 11:59:27;;;;;;;8.13;3.77;;;;;;;25.90;43.55;100233.14;1994224;89;27592;-63
2021/08/20 12:02:29;;;;;;;11.55;4.45;;;;;;;25.67;44.02;100239.42;1994750;89;29462;-62
2021/08/20 12:05:31;;;;;;;7.83;4.67;;;;;;;25.44;45.38;100245.64;1970251;88;31734;-63
2021/08/20 12:08:46;;;;;;;12.13;4.60;;;;;;;25.29;46.80;100245.99;1978456;89;33609;-63
2021/08/20 12:11:56;;;;;;;6.50;4.93;;;;;;;25.06;47.61;100245.36;1960647;89;27865;-63
2021/08/20 12:14:58;;;;;;;11.57;4.90;;;;;;;24.76;48.65;100243.63;1962110;89;27812;-63
2021/08/20 12:18:22;;;;;;;8.08;6.35;;;;;;;24.39;49.69;100248.52;1962183;89;28768;-64
2021/08/20 12:21:25;;;;;;;11.68;7.10;;;;;;;23.99;49.96;100266.55;1961761;89;35405;-63
2021/08/20 12:24:44;;;;;;;16.10;8.93;;;;;;;23.70;51.50;100281.94;1961816;90;33706;-64
2021/08/20 12:27:49;;;;;;;16.45;7.80;;;;;;;23.44;52.64;100274.09;1984812;89;30190;-64
2021/08/20 12:30:51;;;;;;;16.02;7.55;;;;;;;23.11;53.31;100262.02;1995079;89;27866;-64
2021/08/20 12:34:03;;;;;;;11.40;7.05;;;;;;;22.79;54.09;100265.71;1985046;89;29659;-65
2021/08/20 12:37:06;;;;;;;12.15;6.62;;;;;;;22.60;55.17;100267.58;1979894;88;31040;-64
2021/08/20 12:40:13;;;;;;;8.95;6.60;;;;;;;22.53;56.11;100269.20;1961498;90;33138;-65
2021/08/20 12:43:35;;;;;;;7.70;6.70;;;;;;;22.48;56.69;100265.23;1977722;89;29380;-64
2021/08/20 12:46:43;;;;;;;9.00;6.83;;;;;;;22.44;57.65;100257.86;1989103;89;27670;-64
2021/08/20 12:50:06;;;;;;;12.23;8.48;;;;;;;22.39;57.86;100262.88;1989056;89;29484;-64
2021/08/20 12:53:10;;;;;;;13.95;8.58;;;;;;;22.29;58.27;100260.22;1995913;88;31045;-64
2021/08/20 12:56:12;;;;;;;14.33;9.95;;;;;;;22.21;58.82;100260.98;2018330;88;33793;-64
2021/08/20 12:59:18;;;;;;;15.03;10.23;;;;;;;22.19;59.25;100256.19;2017737;87;28476;-63
2021/08/20 13:02:23;;;;;;;11.35;8.93;;;;;;;22.17;59.62;100256.88;2001618;86;28139;-64
2021/08/20 13:05:25;;;;;;;;;;;;;;;22.18;59.76;100250.89;1990683;88;28633;-64
2021/08/20 13:08:29;;;;;;;10.15;6.20;;;;;;;22.19;60.23;100251.25;1991438;88;31010;-64
2021/08/20 13:11:32;;;;;;;9.45;7.08;;;;;;;22.15;59.55;100251.55;2015359;87;33032;-64
2021/08/20 13:14:34;;;;;;;11.05;7.00;;;;;;;22.14;59.71;100255.80;1982502;88;30058;-64
2021/08/20 13:17:36;;;;;;;8.35;6.60;;;;;;;22.14;60.12;100266.20;1988990;88;27773;-64
2021/08/20 13:20:38;;;;;;;9.55;8.28;;;;;;;22.13;60.34;100266.36;1988776;88;28587;-64
2021/08/20 13:23:39;;;;;;;12.63;8.53;;;;;;;22.09;60.70;100266.31;1967303;89;31075;-63
2021/08/20 13:26:42;;;;;;;10.23;7.50;;;;;;;22.04;60.97;100269.50;1955705;89;33062;-64
2021/08/20 13:29:44;;;;;;;11.83;7.87;;;;;;;21.99;61.07;100269.09;1956288;89;29416;-64
2021/08/20 13:32:46;;;;;;;9.35;7.50;;;;;;;21.92;61.19;100275.66;1967235;89;27695;-63
2021/08/20 13:35:47;;;;;;;11.95;8.23;;;;;;;21.85;61.40;100282.70;1988661;88;28835;-64
2021/08/20 13:38:49;;;;;;;13.25;8.75;;;;;;;21.77;61.71;100293.52;1987978;89;31594;-64
2021/08/20 13:41:51;;;;;;;13.22;8.30;;;;;;;21.75;62.60;100292.80;2010133;87;32963;-64
2021/08/20 13:44:54;;;;;;;9.65;8.03;;;;;;;21.72;62.84;100288.52;2027690;87;29520;-64
2021/08/20 13:47:55;;;;;;;9.75;7.53;;;;;;;21.70;63.34;100301.44;1985088;87;27709;-64
2021/08/20 13:50:57;;;;;;;7.15;5.12;;;;;;;21.62;63.52;100319.03;1970099;90;28632;-64
2021/08/20 13:54:00;;;;;;;5.80;4.28;;;;;;;21.34;62.76;100339.36;1970012;90;31869;-64
2021/08/20 13:57:01;;;;;;;6.40;3.72;;;;;;;21.04;63.17;100347.55;1969888;89;33101;-64
2021/08/20 14:00:06;;;;;;;5.05;3.80;;;;;;;20.75;63.26;100342.08;1970213;88;29456;-64
2021/08/20 14:03:07;;;;;;;4.45;3.12;;;;;;;20.53;63.39;100350.84;2003212;87;28264;-64
2021/08/20 14:06:12;;;;;;;6.72;3.35;;;;;;;20.31;63.79;100341.05;2002486;88;29415;-65
2021/08/20 14:09:13;;;;;;;5.80;3.75;;;;;;;20.19;64.03;100337.57;1996769;88;30473;-65
2021/08/20 14:12:15;;;;;;;6.10;3.05;;;;;;;20.10;64.31;100335.17;1970223;89;33937;-64
2021/08/20 14:15:18;;;;;;;4.60;3.35;;;;;;;19.96;64.31;100337.75;1970142;90;29379;-64